createdAt,value
2022-09-07T00:01:00.731Z,99041.06
2022-09-07T00:02:03.135Z,99037.00
2022-09-07T00:03:06.390Z,99030.19
2022-09-07T00:04:09.528Z,99030.81
2022-09-07T00:05:11.971Z,99031.41
2022-09-07T00:06:15.079Z,99029.72
2022-09-07T00:07:17.503Z,99028.13
2022-09-07T00:08:22.791Z,99033.97
2022-09-07T00:09:25.263Z,99029.97
2022-09-07T00:10:27.692Z,99032.25
2022-09-07T00:11:30.030Z,99026.69
2022-09-07T00:12:32.346Z,99017.13
2022-09-07T00:13:37.214Z,99033.97
2022-09-07T00:14:39.680Z,99029.84
2022-09-07T00:15:42.042Z,99023.69
2022-09-07T00:16:44.393Z,99019.44
2022-09-07T00:17:46.883Z,99019.44
2022-09-07T00:18:49.250Z,99019.44
2022-09-07T00:19:51.725Z,99017.38
2022-09-07T00:21:08.924Z,99014.13
2022-09-07T00:22:11.240Z,99028.28
2022-09-07T00:23:13.604Z,99009.91
2022-09-07T00:24:15.888Z,99011.34
2022-09-07T00:25:18.204Z,99008.81
2022-09-07T00:26:24.214Z,99006.03
2022-09-07T00:27:26.695Z,99002.31
2022-09-07T00:28:30.431Z,99003.88
2022-09-07T00:29:32.911Z,99002.41
2022-09-07T00:30:41.403Z,98992.88
2022-09-07T00:31:43.798Z,98996.47
2022-09-07T00:32:46.458Z,98999.41
2022-09-07T00:33:50.788Z,98990.69
2022-09-07T00:34:53.150Z,98993.34
2022-09-07T00:35:57.625Z,98984.03
2022-09-07T00:37:00.312Z,98995.06
2022-09-07T00:38:02.698Z,98992.00
2022-09-07T00:39:05.527Z,98984.66
2022-09-07T00:40:08.499Z,98988.53
2022-09-07T00:41:11.718Z,98982.22
2022-09-07T00:42:14.097Z,98978.25
2022-09-07T00:43:28.634Z,98974.25
2022-09-07T00:44:42.926Z,98972.31
2022-09-07T00:45:46.261Z,98961.66
2022-09-07T00:46:48.656Z,98957.84
2022-09-07T00:48:05.037Z,98961.19
2022-09-07T00:49:21.162Z,98952.59
2022-09-07T00:50:37.480Z,98948.38
2022-09-07T00:51:46.179Z,98941.22
2022-09-07T00:52:54.166Z,98945.56
2022-09-07T00:54:05.761Z,98948.00
2022-09-07T00:55:11.830Z,98948.56
2022-09-07T00:56:14.568Z,98952.47
2022-09-07T00:57:16.960Z,98950.78
2022-09-07T00:58:22.040Z,98945.19
2022-09-07T00:59:32.583Z,98940.47
2022-09-07T01:00:35.723Z,98959.81
2022-09-07T01:01:39.290Z,98956.19
2022-09-07T01:02:41.989Z,98953.03
2022-09-07T01:03:50.037Z,98950.13
2022-09-07T01:05:00.291Z,98945.69
2022-09-07T01:06:14.167Z,98948.38
2022-09-07T01:07:16.522Z,98950.56
2022-09-07T01:08:19.129Z,98945.06
2022-09-07T01:09:23.919Z,98940.97
2022-09-07T01:10:31.711Z,98959.91
2022-09-07T01:11:35.075Z,98951.94
2022-09-07T01:12:37.446Z,98963.56
2022-09-07T01:13:44.751Z,98953.31
2022-09-07T01:14:51.902Z,98953.91
2022-09-07T01:16:12.578Z,98958.13
2022-09-07T01:17:27.339Z,98943.47
2022-09-07T01:18:51.220Z,98959.44
2022-09-07T01:20:20.602Z,98966.97
2022-09-07T01:21:43.834Z,98964.41
2022-09-07T01:23:06.368Z,98977.72
2022-09-07T01:24:35.983Z,98978.78
2022-09-07T01:25:43.927Z,98986.91
2022-09-07T01:28:01.581Z,98995.00
2022-09-07T01:29:44.569Z,98993.78
2022-09-07T01:30:56.910Z,98990.91
2022-09-07T01:32:05.514Z,98996.09
2022-09-07T01:33:13.396Z,98999.59
2022-09-07T01:34:25.087Z,98996.81
2022-09-07T01:35:58.808Z,98997.06
2022-09-07T01:37:12.937Z,98996.22
2022-09-07T01:38:39.302Z,99004.81
2022-09-07T01:39:57.069Z,99006.53
2022-09-07T01:41:20.880Z,99009.53
2022-09-07T01:42:30.665Z,99010.28
2022-09-07T01:44:10.996Z,99003.75
2022-09-07T01:45:16.918Z,99008.06
2022-09-07T01:46:26.781Z,99005.44
2022-09-07T01:47:38.282Z,99012.44
2022-09-07T01:48:42.846Z,99012.56
2022-09-07T01:49:54.421Z,99021.75
2022-09-07T01:51:02.313Z,99033.59
2022-09-07T01:52:15.064Z,99046.66
2022-09-07T01:53:28.966Z,99073.75
2022-09-07T01:54:41.851Z,99078.09
2022-09-07T01:55:49.841Z,99079.28
2022-09-07T01:56:56.135Z,99059.84
2022-09-07T01:58:07.535Z,99068.66
2022-09-07T01:59:22.648Z,99078.22
2022-09-07T02:00:25.628Z,99064.53
2022-09-07T02:01:41.721Z,99077.03
2022-09-07T02:02:59.403Z,99076.06
2022-09-07T02:04:11.524Z,99081.38
2022-09-07T02:05:24.290Z,99076.28
2022-09-07T02:06:42.481Z,99078.09
2022-09-07T02:07:57.017Z,99084.78
2022-09-07T02:09:03.301Z,99097.84
2022-09-07T02:10:28.378Z,99095.06
2022-09-07T02:11:44.571Z,99088.25
2022-09-07T02:12:46.880Z,99078.94
2022-09-07T02:13:57.380Z,99074.84
2022-09-07T02:15:07.354Z,99079.81
2022-09-07T02:16:15.077Z,99087.03
2022-09-07T02:17:33.758Z,99067.81
2022-09-07T02:18:43.408Z,99062.25
2022-09-07T02:19:53.486Z,99059.59
2022-09-07T02:20:58.079Z,99058.25
2022-09-07T02:22:05.423Z,99051.38
2022-09-07T02:23:18.073Z,99050.00
2022-09-07T02:24:44.056Z,99061.84
2022-09-07T02:25:53.519Z,99063.63
2022-09-07T02:26:58.907Z,99057.13
2022-09-07T02:28:17.333Z,99063.41
2022-09-07T02:29:20.023Z,99061.72
2022-09-07T02:30:22.803Z,99061.47
2022-09-07T02:31:25.565Z,99074.78
2022-09-07T02:32:28.005Z,99068.38
2022-09-07T02:33:30.980Z,99064.16
2022-09-07T02:34:33.470Z,99071.63
2022-09-07T02:35:36.158Z,99064.16
2022-09-07T02:37:05.124Z,99076.47
2022-09-07T02:38:26.770Z,99066.28
2022-09-07T02:39:48.121Z,99066.56
2022-09-07T02:41:18.499Z,99070.94
2022-09-07T02:42:22.559Z,99065.16
2022-09-07T02:43:25.902Z,99062.13
2022-09-07T02:44:32.491Z,99061.03
2022-09-07T02:45:57.336Z,99059.97
2022-09-07T02:47:21.114Z,99060.06
2022-09-07T02:48:32.003Z,99060.03
2022-09-07T02:50:01.108Z,99074.28
2022-09-07T02:51:43.927Z,99070.34
2022-09-07T02:53:07.469Z,99073.50
2022-09-07T02:54:28.274Z,99068.03
2022-09-07T02:56:02.170Z,99066.25
2022-09-07T02:57:31.614Z,99062.16
2022-09-07T02:58:50.461Z,99060.06
2022-09-07T03:00:08.111Z,99056.81
2022-09-07T03:01:38.243Z,99044.84
2022-09-07T03:02:46.279Z,99048.72
2022-09-07T03:04:02.828Z,99041.06
2022-09-07T03:05:26.009Z,99023.56
2022-09-07T03:06:34.945Z,99018.22
2022-09-07T03:07:47.710Z,99025.97
2022-09-07T03:08:54.475Z,99026.81
2022-09-07T03:09:58.359Z,99031.19
2022-09-07T03:11:01.672Z,99023.06
2022-09-07T03:12:05.377Z,99035.75
2022-09-07T03:13:07.805Z,99035.78
2022-09-07T03:14:36.205Z,99042.56
2022-09-07T03:15:38.738Z,99043.88
2022-09-07T03:16:41.324Z,99041.22
2022-09-07T03:17:45.212Z,99042.56
2022-09-07T03:18:47.593Z,99035.16
2022-09-07T03:19:49.920Z,99022.84
2022-09-07T03:20:52.600Z,99026.69
2022-09-07T03:21:54.975Z,99024.41
2022-09-07T03:22:57.248Z,99021.63
2022-09-07T03:23:59.600Z,99024.53
2022-09-07T03:25:04.303Z,99026.09
2022-09-07T03:26:07.107Z,99030.56
2022-09-07T03:27:09.539Z,99025.88
2022-09-07T03:28:12.063Z,99018.00
2022-09-07T03:29:15.727Z,99024.88
2022-09-07T03:30:18.159Z,99025.38
2022-09-07T03:31:20.719Z,99029.50
2022-09-07T03:32:23.088Z,99024.75
2022-09-07T03:33:25.404Z,99020.66
2022-09-07T03:34:27.785Z,99025.88
2022-09-07T03:35:30.152Z,99019.81
2022-09-07T03:36:32.989Z,99020.28
2022-09-07T03:37:36.846Z,99013.16
2022-09-07T03:38:39.165Z,99012.88
2022-09-07T03:39:41.561Z,99003.25
2022-09-07T03:40:43.903Z,99000.47
2022-09-07T03:41:46.596Z,99006.41
2022-09-07T03:42:50.295Z,99010.28
2022-09-07T03:43:53.018Z,99015.25
2022-09-07T03:44:55.366Z,99003.75
2022-09-07T03:46:00.074Z,99000.00
2022-09-07T03:47:02.856Z,98995.16
2022-09-07T03:48:05.174Z,99005.66
2022-09-07T03:49:07.486Z,99005.16
2022-09-07T03:50:09.994Z,99010.38
2022-09-07T03:51:14.172Z,98995.03
2022-09-07T03:52:16.589Z,98996.25
2022-09-07T03:53:18.920Z,98995.88
2022-09-07T03:54:22.179Z,98995.88
2022-09-07T03:55:24.554Z,98996.72
2022-09-07T03:56:26.901Z,98993.97
2022-09-07T03:57:29.186Z,98988.50
2022-09-07T03:58:33.096Z,98981.38
2022-09-07T03:59:35.606Z,98984.84
2022-09-07T04:00:41.516Z,98977.56
2022-09-07T04:01:43.980Z,98973.69
2022-09-07T04:02:46.413Z,98973.00
2022-09-07T04:03:49.303Z,98969.88
2022-09-07T04:04:51.682Z,98974.47
2022-09-07T04:05:54.135Z,98977.41
2022-09-07T04:06:56.688Z,98984.28
2022-09-07T04:07:59.155Z,98979.81
2022-09-07T04:09:10.631Z,98961.88
2022-09-07T04:10:13.557Z,98967.69
2022-09-07T04:11:17.928Z,98964.66
2022-09-07T04:12:20.315Z,98976.38
2022-09-07T04:13:23.066Z,98963.19
2022-09-07T04:14:25.517Z,98966.81
2022-09-07T04:15:29.070Z,98972.75
2022-09-07T04:16:31.538Z,98966.47
2022-09-07T04:17:33.993Z,98968.16
2022-09-07T04:18:37.444Z,98964.81
2022-09-07T04:19:39.783Z,98968.09
2022-09-07T04:20:42.150Z,98962.03
2022-09-07T04:21:46.575Z,98973.69
2022-09-07T04:22:54.099Z,98970.81
2022-09-07T04:23:57.137Z,98977.97
2022-09-07T04:24:59.626Z,98973.75
2022-09-07T04:26:02.001Z,98978.06
2022-09-07T04:27:04.303Z,98973.69
2022-09-07T04:28:06.670Z,98978.53
2022-09-07T04:29:09.722Z,98972.50
2022-09-07T04:30:13.578Z,98976.56
2022-09-07T04:31:18.328Z,98975.69
2022-09-07T04:32:20.726Z,98977.63
2022-09-07T04:33:23.107Z,98971.22
2022-09-07T04:34:25.415Z,98967.38
2022-09-07T04:35:28.002Z,98963.72
2022-09-07T04:36:31.089Z,98962.81
2022-09-07T04:37:33.473Z,98968.72
2022-09-07T04:38:36.077Z,98972.00
2022-09-07T04:39:38.843Z,98973.53
2022-09-07T04:40:42.045Z,98972.06
2022-09-07T04:41:44.430Z,98975.81
2022-09-07T04:42:47.211Z,98976.25
2022-09-07T04:43:53.269Z,98970.34
2022-09-07T04:44:55.637Z,98972.78
2022-09-07T04:46:01.503Z,98968.06
2022-09-07T04:47:04.357Z,98982.31
2022-09-07T04:48:07.092Z,98969.56
2022-09-07T04:49:10.953Z,98968.63
2022-09-07T04:50:13.364Z,98968.38
2022-09-07T04:51:16.334Z,98971.75
2022-09-07T04:52:19.236Z,98967.69
2022-09-07T04:53:21.874Z,98970.56
2022-09-07T04:54:24.248Z,98968.19
2022-09-07T04:55:26.607Z,98969.22
2022-09-07T04:56:30.384Z,98969.81
2022-09-07T04:57:32.684Z,98965.84
2022-09-07T04:58:36.053Z,98963.91
2022-09-07T04:59:38.359Z,98954.75
2022-09-07T05:00:40.934Z,98965.44
2022-09-07T05:01:44.962Z,98965.81
2022-09-07T05:02:47.474Z,98957.25
2022-09-07T05:03:50.019Z,98960.41
2022-09-07T05:04:52.891Z,98954.75
2022-09-07T05:05:55.248Z,98956.22
2022-09-07T05:06:58.176Z,98958.41
2022-09-07T05:08:00.505Z,98949.84
2022-09-07T05:09:02.943Z,98944.56
2022-09-07T05:10:05.619Z,98938.13
2022-09-07T05:11:10.032Z,98946.38
2022-09-07T05:12:12.675Z,98942.63
2022-09-07T05:13:15.060Z,98948.81
2022-09-07T05:14:17.526Z,98952.94
2022-09-07T05:15:19.881Z,98952.56
2022-09-07T05:16:24.170Z,98958.97
2022-09-07T05:17:26.704Z,98948.69
2022-09-07T05:18:29.109Z,98950.84
2022-09-07T05:19:31.615Z,98946.31
2022-09-07T05:20:33.937Z,98952.34
2022-09-07T05:21:36.324Z,98949.44
2022-09-07T05:22:41.047Z,98946.44
2022-09-07T05:23:45.557Z,98951.47
2022-09-07T05:24:48.273Z,98952.00
2022-09-07T05:25:50.701Z,98950.63
2022-09-07T05:26:53.957Z,98969.38
2022-09-07T05:27:56.511Z,98988.84
2022-09-07T05:31:48.972Z,99031.53
2022-09-07T05:32:51.727Z,99047.91
2022-09-07T05:35:20.384Z,99066.91
2022-09-07T05:36:23.543Z,99073.41
2022-09-07T05:37:25.953Z,99077.47
2022-09-07T05:38:29.481Z,99081.53
2022-09-07T05:39:32.012Z,99078.06
2022-09-07T05:40:38.553Z,99079.72
2022-09-07T05:41:42.923Z,99078.81
2022-09-07T05:42:45.349Z,99081.47
2022-09-07T05:45:11.578Z,99084.75
2022-09-07T05:46:14.874Z,99080.16
2022-09-07T05:47:18.974Z,99097.88
2022-09-07T05:48:21.526Z,99104.78
2022-09-07T05:49:24.461Z,99112.50
2022-09-07T05:50:26.871Z,99109.50
2022-09-07T05:51:29.276Z,99114.81
2022-09-07T05:52:31.743Z,99106.44
2022-09-07T05:53:38.317Z,99100.72
2022-09-07T05:54:40.686Z,99119.03
2022-09-07T05:55:43.080Z,99106.50
2022-09-07T05:56:45.397Z,99115.97
2022-09-07T05:57:47.813Z,99120.94
2022-09-07T05:58:50.177Z,99119.06
2022-09-07T05:59:52.488Z,99115.31
2022-09-07T06:01:06.504Z,99117.94
2022-09-07T06:02:14.627Z,99122.66
2022-09-07T06:03:17.241Z,99121.22
2022-09-07T06:04:19.745Z,99113.28
2022-09-07T06:05:22.163Z,99115.44
2022-09-07T06:06:24.566Z,99108.31
2022-09-07T06:07:26.904Z,99121.59
2022-09-07T06:08:30.644Z,99117.16
2022-09-07T06:09:33.229Z,99116.69
2022-09-07T06:10:44.946Z,99121.84
2022-09-07T06:11:47.554Z,99116.50
2022-09-07T06:12:49.990Z,99120.50
2022-09-07T06:13:52.637Z,99127.09
2022-09-07T06:14:54.928Z,99119.69
2022-09-07T06:16:04.949Z,99113.78
2022-09-07T06:17:07.411Z,99113.22
2022-09-07T06:18:09.713Z,99115.56
2022-09-07T06:19:12.102Z,99116.53
2022-09-07T06:20:14.619Z,99118.25
2022-09-07T06:21:23.732Z,99126.97
2022-09-07T06:22:30.546Z,99125.16
2022-09-07T06:23:34.621Z,99126.00
2022-09-07T06:24:37.040Z,99137.44
2022-09-07T06:25:48.476Z,99127.81
2022-09-07T06:26:50.866Z,99129.69
2022-09-07T06:27:54.000Z,99124.44
2022-09-07T06:28:58.043Z,99121.31
2022-09-07T06:30:00.555Z,99126.50
2022-09-07T06:31:04.474Z,99133.00
2022-09-07T06:33:29.350Z,99128.31
2022-09-07T06:34:31.809Z,99133.00
2022-09-07T06:35:34.186Z,99127.91
2022-09-07T06:36:36.588Z,99134.09
2022-09-07T06:37:39.082Z,99125.91
2022-09-07T06:38:41.768Z,99127.97
2022-09-07T06:39:44.258Z,99127.53
2022-09-07T06:40:46.711Z,99125.16
2022-09-07T06:42:04.408Z,99128.97
2022-09-07T06:43:07.338Z,99129.69
2022-09-07T06:44:09.835Z,99121.50
2022-09-07T06:45:12.878Z,99117.84
2022-09-07T06:47:38.991Z,99120.78
2022-09-07T06:48:44.258Z,99120.22
2022-09-07T06:49:46.926Z,99125.78
2022-09-07T06:51:16.441Z,99126.34
2022-09-07T06:52:18.792Z,99127.31
2022-09-07T06:53:37.629Z,99120.19
2022-09-07T06:56:01.001Z,99116.19
2022-09-07T06:57:09.020Z,99114.28
2022-09-07T06:58:12.062Z,99111.72
2022-09-07T06:59:14.438Z,99113.59
2022-09-07T07:00:16.992Z,99112.66
2022-09-07T07:01:21.713Z,99108.00
2022-09-07T07:02:24.090Z,99120.84
2022-09-07T07:03:26.465Z,99117.16
2022-09-07T07:04:28.849Z,99114.47
2022-09-07T07:05:31.776Z,99114.06
2022-09-07T07:06:35.937Z,99114.63
2022-09-07T07:07:38.298Z,99115.22
2022-09-07T07:08:40.897Z,99115.34
2022-09-07T07:09:43.281Z,99111.59
2022-09-07T07:10:45.702Z,99119.88
2022-09-07T07:11:48.226Z,99114.53
2022-09-07T07:12:52.131Z,99125.66
2022-09-07T07:13:54.486Z,99117.19
2022-09-07T07:14:57.134Z,99120.28
2022-09-07T07:16:05.092Z,99121.16
2022-09-07T07:17:07.529Z,99121.41
2022-09-07T07:18:20.837Z,99120.13
2022-09-07T07:19:23.428Z,99119.44
2022-09-07T07:20:25.769Z,99116.47
2022-09-07T07:21:38.270Z,99114.00
2022-09-07T07:22:53.456Z,99118.22
2022-09-07T07:23:55.785Z,99131.78
2022-09-07T07:24:58.094Z,99126.19
2022-09-07T07:26:05.083Z,99128.19
2022-09-07T07:27:07.552Z,99126.19
2022-09-07T07:29:32.392Z,99128.06
2022-09-07T07:30:34.648Z,99125.78
2022-09-07T07:31:37.025Z,99134.22
2022-09-07T07:32:39.523Z,99139.22
2022-09-07T07:33:42.713Z,99129.94
2022-09-07T07:34:45.172Z,99135.47
2022-09-07T07:35:47.886Z,99137.81
2022-09-07T07:36:50.319Z,99144.97
2022-09-07T07:40:39.751Z,99151.19
2022-09-07T07:42:00.302Z,99150.59
2022-09-07T07:43:07.620Z,99145.09
2022-09-07T07:44:10.203Z,99145.59
2022-09-07T07:46:36.271Z,99144.53
2022-09-07T07:47:38.729Z,99144.53
2022-09-07T07:48:41.830Z,99154.28
2022-09-07T07:49:44.659Z,99148.09
2022-09-07T07:51:04.376Z,99154.75
2022-09-07T07:53:42.241Z,99148.66
2022-09-07T07:54:45.233Z,99152.78
2022-09-07T07:55:47.685Z,99155.19
2022-09-07T07:56:49.953Z,99157.31
2022-09-07T07:57:52.289Z,99155.34
2022-09-07T07:58:55.202Z,99156.81
2022-09-07T07:59:57.548Z,99158.28
2022-09-07T08:01:11.332Z,99161.44
2022-09-07T08:02:16.926Z,99161.66
2022-09-07T08:03:19.542Z,99154.91
2022-09-07T08:04:22.987Z,99163.16
2022-09-07T08:05:25.914Z,99171.41
2022-09-07T08:06:28.310Z,99163.13
2022-09-07T08:07:30.556Z,99168.56
2022-09-07T08:08:32.874Z,99173.13
2022-09-07T08:09:36.839Z,99182.06
2022-09-07T08:10:39.159Z,99176.38
2022-09-07T08:11:42.407Z,99181.94
2022-09-07T08:12:47.184Z,99172.03
2022-09-07T08:13:50.941Z,99177.09
2022-09-07T08:14:54.040Z,99179.25
2022-09-07T08:15:59.207Z,99170.44
2022-09-07T08:17:01.521Z,99176.22
2022-09-07T08:18:03.979Z,99179.31
2022-09-07T08:19:06.256Z,99178.41
2022-09-07T08:20:09.079Z,99179.56
2022-09-07T08:21:14.387Z,99184.09
2022-09-07T08:22:16.657Z,99181.19
2022-09-07T08:23:20.430Z,99174.28
2022-09-07T08:24:22.734Z,99177.84
2022-09-07T08:25:25.468Z,99183.84
2022-09-07T08:26:28.210Z,99176.06
2022-09-07T08:27:30.540Z,99169.31
2022-09-07T08:28:36.213Z,99175.47
2022-09-07T08:29:38.531Z,99174.53
2022-09-07T08:30:40.757Z,99178.03
2022-09-07T08:31:44.295Z,99180.13
2022-09-07T08:32:46.649Z,99188.63
2022-09-07T08:33:48.943Z,99182.75
2022-09-07T08:34:51.180Z,99180.22
2022-09-07T08:36:01.516Z,99179.84
2022-09-07T08:37:03.890Z,99185.28
2022-09-07T08:38:06.291Z,99185.53
2022-09-07T08:39:08.631Z,99185.44
2022-09-07T08:40:16.961Z,99176.34
2022-09-07T08:41:51.547Z,99178.94
2022-09-07T08:43:18.426Z,99185.09
2022-09-07T08:44:45.543Z,99187.13
2022-09-07T08:45:52.605Z,99190.13
2022-09-07T08:47:38.668Z,99193.16
2022-09-07T08:48:41.097Z,99193.31
2022-09-07T08:49:48.738Z,99194.69
2022-09-07T08:51:31.173Z,99195.84
2022-09-07T08:52:46.759Z,99191.84
2022-09-07T08:53:50.517Z,99192.00
2022-09-07T08:55:04.866Z,99200.06
2022-09-07T08:56:12.352Z,99196.19
2022-09-07T08:57:21.058Z,99191.19
2022-09-07T08:58:48.769Z,99195.22
2022-09-07T09:00:06.541Z,99199.06
2022-09-07T09:01:32.213Z,99194.69
2022-09-07T09:02:43.584Z,99188.44
2022-09-07T09:05:28.231Z,99197.59
2022-09-07T09:07:10.542Z,99186.88
2022-09-07T09:08:39.778Z,99185.78
2022-09-07T09:09:58.436Z,99190.75
2022-09-07T09:11:12.319Z,99194.66
2022-09-07T09:12:42.075Z,99194.41
2022-09-07T09:13:58.254Z,99187.69
2022-09-07T09:15:26.464Z,99187.47
2022-09-07T09:16:42.956Z,99192.84
2022-09-07T09:17:45.354Z,99193.69
2022-09-07T09:19:13.115Z,99186.63
2022-09-07T09:20:24.971Z,99191.41
2022-09-07T09:21:27.581Z,99192.84
2022-09-07T09:22:29.945Z,99195.50
2022-09-07T09:23:39.647Z,99189.50
2022-09-07T09:24:47.342Z,99187.44
2022-09-07T09:25:53.317Z,99188.16
2022-09-07T09:26:57.255Z,99181.03
2022-09-07T09:27:59.487Z,99184.44
2022-09-07T09:29:17.378Z,99175.81
2022-09-07T09:30:22.394Z,99171.22
2022-09-07T09:31:32.631Z,99171.69
2022-09-07T09:32:37.567Z,99160.81
2022-09-07T09:33:39.823Z,99170.94
2022-09-07T09:35:01.437Z,99168.72
2022-09-07T09:36:24.784Z,99179.25
2022-09-07T09:37:34.879Z,99173.78
2022-09-07T09:38:45.395Z,99171.81
2022-09-07T09:40:02.122Z,99179.56
2022-09-07T09:41:09.274Z,99175.16
2022-09-07T09:42:11.524Z,99175.44
2022-09-07T09:43:51.773Z,99181.19
2022-09-07T09:44:54.041Z,99187.72
2022-09-07T09:46:13.288Z,99180.63
2022-09-07T09:47:32.375Z,99177.47
2022-09-07T09:48:40.369Z,99183.28
2022-09-07T09:49:45.150Z,99173.44
2022-09-07T09:52:29.964Z,99165.50
2022-09-07T09:53:40.139Z,99168.25
2022-09-07T09:54:44.560Z,99171.56
2022-09-07T09:55:52.123Z,99164.56
2022-09-07T09:56:54.415Z,99164.28
2022-09-07T10:03:57.454Z,99150.59
2022-09-07T10:05:19.706Z,99158.25
2022-09-07T10:06:22.527Z,99143.34
2022-09-07T10:07:30.087Z,99144.94
2022-09-07T10:08:34.012Z,99146.16
2022-09-07T10:09:39.563Z,99152.72
2022-09-07T10:10:58.580Z,99147.78
2022-09-07T10:12:06.827Z,99144.53
2022-09-07T10:13:21.290Z,99139.94
2022-09-07T10:14:50.341Z,99133.19
2022-09-07T10:15:56.178Z,99129.28
2022-09-07T10:16:59.960Z,99120.19
2022-09-07T10:18:07.170Z,99127.59
2022-09-07T10:19:23.464Z,99126.94
2022-09-07T10:20:35.024Z,99129.56
2022-09-07T10:21:37.378Z,99131.13
2022-09-07T10:22:43.012Z,99125.94
2022-09-07T10:23:45.300Z,99124.72
2022-09-07T10:24:47.991Z,99116.69
2022-09-07T10:25:51.098Z,99117.06
2022-09-07T10:26:53.998Z,99123.25
2022-09-07T10:28:23.954Z,99119.84
2022-09-07T10:29:28.664Z,99104.94
2022-09-07T10:30:41.204Z,99118.56
2022-09-07T10:31:54.304Z,99108.84
2022-09-07T10:33:09.064Z,99128.50
2022-09-07T10:34:56.583Z,99127.31
2022-09-07T10:36:23.747Z,99121.59
2022-09-07T10:37:43.722Z,99128.31
2022-09-07T10:38:54.996Z,99115.50
2022-09-07T10:40:20.794Z,99122.19
2022-09-07T10:41:36.994Z,99129.75
2022-09-07T10:43:20.560Z,99117.25
2022-09-07T10:44:19.484Z,99133.56
2022-09-07T10:45:45.292Z,99127.88
2022-09-07T10:47:04.130Z,99111.81
2022-09-07T10:48:28.793Z,99126.38
2022-09-07T10:51:43.054Z,99126.28
2022-09-07T10:52:58.946Z,99122.91
2022-09-07T10:54:33.439Z,99120.63
2022-09-07T10:55:42.631Z,99115.22
2022-09-07T10:57:08.157Z,99113.06
2022-09-07T11:00:07.962Z,99112.56
2022-09-07T11:01:18.766Z,99115.25
2022-09-07T11:04:18.175Z,99114.28
2022-09-07T11:05:58.544Z,99113.28
2022-09-07T11:07:09.448Z,99118.19
2022-09-07T11:08:27.213Z,99119.88
2022-09-07T11:09:46.162Z,99101.09
2022-09-07T11:11:04.219Z,99109.69
2022-09-07T11:12:16.896Z,99110.69
2022-09-07T11:13:25.822Z,99105.38
2022-09-07T11:14:31.137Z,99110.72
2022-09-07T11:15:41.446Z,99106.22
2022-09-07T11:16:52.802Z,99105.84
2022-09-07T11:18:01.170Z,99104.47
2022-09-07T11:20:50.652Z,99112.28
2022-09-07T11:22:31.200Z,99102.03
2022-09-07T11:23:46.882Z,99097.56
2022-09-07T11:26:38.796Z,99094.28
2022-09-07T11:27:47.538Z,99097.72
2022-09-07T11:30:29.850Z,99085.84
2022-09-07T11:31:39.887Z,99088.19
2022-09-07T11:32:59.935Z,99083.63
2022-09-07T11:34:25.630Z,99081.97
2022-09-07T11:35:37.634Z,99081.81
2022-09-07T11:36:49.953Z,99082.72
2022-09-07T11:37:59.428Z,99078.69
2022-09-07T11:39:12.637Z,99080.03
2022-09-07T11:40:31.534Z,99072.19
2022-09-07T11:41:41.984Z,99073.97
2022-09-07T11:43:20.912Z,99065.66
2022-09-07T11:44:40.864Z,99069.63
2022-09-07T11:45:54.247Z,99069.19
2022-09-07T11:47:04.118Z,99076.41
2022-09-07T11:48:22.042Z,99065.78
2022-09-07T11:49:25.911Z,99067.03
2022-09-07T11:50:35.290Z,99069.19
2022-09-07T11:51:42.062Z,99069.00
2022-09-07T11:53:17.202Z,99070.06
2022-09-07T11:54:25.802Z,99070.03
2022-09-07T11:55:33.678Z,99072.69
2022-09-07T11:56:39.452Z,99067.94
2022-09-07T11:58:00.318Z,99064.97
2022-09-07T11:59:18.761Z,99062.03
2022-09-07T12:00:23.860Z,99069.91
2022-09-07T12:01:48.013Z,99076.00
2022-09-07T12:03:05.398Z,99063.59
2022-09-07T12:04:35.650Z,99066.66
2022-09-07T12:05:46.670Z,99065.63
2022-09-07T12:07:04.164Z,99063.50
2022-09-07T12:08:09.006Z,99056.69
2022-09-07T12:09:29.684Z,99058.72
2022-09-07T12:10:46.797Z,99060.22
2022-09-07T12:12:17.535Z,99054.75
2022-09-07T12:13:46.802Z,99052.09
2022-09-07T12:14:57.468Z,99047.81
2022-09-07T12:16:21.760Z,99051.66
2022-09-07T12:17:48.176Z,99052.09
2022-09-07T12:19:23.483Z,99040.66
2022-09-07T12:20:38.103Z,99036.88
2022-09-07T12:21:40.309Z,99048.34
2022-09-07T12:23:14.981Z,99046.28
2022-09-07T12:25:06.547Z,99042.72
2022-09-07T12:26:33.587Z,99042.56
2022-09-07T12:27:37.437Z,99041.97
2022-09-07T12:28:39.619Z,99041.41
2022-09-07T12:29:45.431Z,99044.75
2022-09-07T12:31:00.492Z,99043.66
2022-09-07T12:32:53.135Z,99050.47
2022-09-07T12:33:36.084Z,99030.34
2022-09-07T12:34:55.845Z,99037.63
2022-09-07T12:36:00.710Z,99041.00
2022-09-07T12:37:36.664Z,99047.25
2022-09-07T12:39:19.690Z,99039.97
2022-09-07T12:40:27.889Z,99038.38
2022-09-07T12:42:31.957Z,99038.22
2022-09-07T12:43:14.084Z,99038.34
2022-09-07T12:44:24.907Z,99040.19
2022-09-07T12:45:29.382Z,99038.47
2022-09-07T12:46:35.410Z,99031.50
2022-09-07T12:47:38.588Z,99038.41
2022-09-07T12:48:52.168Z,99029.81
2022-09-07T12:50:28.406Z,99043.47
2022-09-07T12:53:22.144Z,99028.16
2022-09-07T12:55:29.529Z,99035.81
2022-09-07T12:56:43.895Z,99031.34
2022-09-07T12:58:31.761Z,99027.44
2022-09-07T12:59:50.271Z,99019.50
2022-09-07T13:01:10.877Z,99023.19
2022-09-07T13:02:16.318Z,99018.56
2022-09-07T13:04:03.668Z,99010.44
2022-09-07T13:05:35.297Z,99021.91
2022-09-07T13:07:04.903Z,99018.09
2022-09-07T13:09:07.716Z,99013.28
2022-09-07T13:10:20.357Z,99015.88
2022-09-07T13:11:34.732Z,99018.81
2022-09-07T13:12:57.747Z,99018.13
2022-09-07T13:14:08.550Z,99018.88
2022-09-07T13:15:35.403Z,99016.41
2022-09-07T13:18:03.408Z,99008.31
2022-09-07T13:19:08.606Z,99006.84
2022-09-07T13:20:10.710Z,99023.53
2022-09-07T13:21:14.895Z,99004.59
2022-09-07T13:22:29.348Z,99014.63
2022-09-07T13:23:32.043Z,99010.47
2022-09-07T13:24:47.277Z,98999.78
2022-09-07T13:25:53.432Z,98999.53
2022-09-07T13:27:11.008Z,99007.38
2022-09-07T13:28:38.634Z,99009.91
2022-09-07T13:29:40.815Z,99013.06
2022-09-07T13:31:00.065Z,99006.19
2022-09-07T13:32:20.281Z,99007.88
2022-09-07T13:33:25.838Z,98997.78
2022-09-07T13:34:33.788Z,98997.16
2022-09-07T13:35:36.389Z,98995.66
2022-09-07T13:36:48.540Z,99001.41
2022-09-07T13:37:57.894Z,99004.19
2022-09-07T13:39:00.266Z,98987.53
2022-09-07T13:40:04.224Z,98993.22
2022-09-07T13:41:16.778Z,98993.56
2022-09-07T13:42:25.539Z,98991.22
2022-09-07T13:43:28.533Z,98993.38
2022-09-07T13:44:33.577Z,98995.78
2022-09-07T13:45:55.946Z,98994.84
2022-09-07T13:47:33.630Z,98997.84
2022-09-07T13:48:46.941Z,98988.72
2022-09-07T13:50:23.229Z,98990.09
2022-09-07T13:51:25.869Z,98986.56
2022-09-07T13:53:08.525Z,98990.69
2022-09-07T13:54:20.238Z,98979.50
2022-09-07T13:55:29.068Z,98972.31
2022-09-07T13:56:46.990Z,98978.06
2022-09-07T13:58:18.150Z,98983.06
2022-09-07T13:59:31.127Z,98991.88
2022-09-07T14:00:34.570Z,98977.66
2022-09-07T14:01:45.152Z,98982.06
2022-09-07T14:03:00.795Z,98980.19
2022-09-07T14:04:09.483Z,98978.69
2022-09-07T14:05:18.679Z,98978.66
2022-09-07T14:06:21.281Z,98981.81
2022-09-07T14:07:26.367Z,98974.31
2022-09-07T14:08:29.942Z,98976.00
2022-09-07T14:09:33.761Z,98980.56
2022-09-07T14:10:36.094Z,98976.94
2022-09-07T14:11:52.693Z,98982.53
2022-09-07T14:13:12.252Z,98968.97
2022-09-07T14:14:27.626Z,98965.63
2022-09-07T14:15:34.302Z,98972.06
2022-09-07T14:16:37.158Z,98961.09
2022-09-07T14:17:40.247Z,98978.63